Time,TemperatureF,DewpointF,PressureIn,WindDirection,WindDirectionDegrees,WindSpeedMPH,WindSpeedGustMPH,Humidity,HourlyPrecipIn,Conditions,Clouds,dailyrainin,SoftwareType,DateUTC
2013-02-26 00:02:00,37.4,8.1,30.19,East,101,1.0,0.0,29,0.00,,,0.00,meteohub,2013-02-26 08:02:00,
2013-02-26 00:07:00,37.2,7.9,30.19,West,274,0.0,3.0,29,0.00,,,0.00,meteohub,2013-02-26 08:07:00,
2013-02-26 00:12:00,37.6,5.0,30.19,ESE,110,0.0,3.0,25,0.00,,,0.00,meteohub,2013-02-26 08:12:00,
2013-02-26 00:17:00,37.8,5.9,30.18,ESE,111,0.0,3.0,26,0.00,,,0.00,meteohub,2013-02-26 08:17:00,
2013-02-26 00:22:00,37.9,3.4,30.19,WSW,252,0.0,0.0,23,0.00,,,0.00,meteohub,2013-02-26 08:22:00,
2013-02-26 00:27:00,38.1,2.7,30.19,East,99,0.0,0.0,22,0.00,,,0.00,meteohub,2013-02-26 08:27:00,
2013-02-26 00:32:00,38.5,2.8,30.18,NNE,12,0.0,3.0,22,0.00,,,0.00,meteohub,2013-02-26 08:32:00,
2013-02-26 00:37:00,38.8,1.2,30.18,NE,48,1.0,3.0,20,0.00,,,0.00,meteohub,2013-02-26 08:37:00,
2013-02-26 00:42:00,39.4,0.5,30.19,NE,48,5.0,5.0,19,0.00,,,0.00,meteohub,2013-02-26 08:42:00,
2013-02-26 00:47:00,39.9,2.1,30.19,WNW,294,6.0,6.0,20,0.00,,,0.00,meteohub,2013-02-26 08:47:00,
2013-02-26 00:52:00,39.9,2.1,30.18,NE,39,1.0,6.0,20,0.00,,,0.00,meteohub,2013-02-26 08:52:00,
2013-02-26 00:57:00,39.7,3.9,30.18,NE,34,4.0,6.0,22,0.00,,,0.00,meteohub,2013-02-26 08:57:00,
2013-02-26 01:02:00,39.7,3.0,30.18,NE,34,4.0,7.0,21,0.00,,,0.00,meteohub,2013-02-26 09:02:00,
2013-02-26 01:07:00,39.6,2.8,30.18,NNE,30,2.0,7.0,21,0.00,,,0.00,meteohub,2013-02-26 09:07:00,
2013-02-26 01:12:00,39.2,2.5,30.17,NE,37,5.0,7.0,21,0.00,,,0.00,meteohub,2013-02-26 09:12:00,
2013-02-26 01:17:00,38.8,3.2,30.17,WNW,300,1.0,7.0,22,0.00,,,0.00,meteohub,2013-02-26 09:17:00,
2013-02-26 01:22:00,38.7,2.1,30.17,North,356,4.0,7.0,21,0.00,,,0.00,meteohub,2013-02-26 09:22:00,
2013-02-26 01:27:00,38.7,3.0,30.17,NNE,13,5.0,7.0,22,0.00,,,0.00,meteohub,2013-02-26 09:27:00,
2013-02-26 01:32:00,38.5,2.8,30.17,NE,39,5.0,7.0,22,0.00,,,0.00,meteohub,2013-02-26 09:32:00,
2013-02-26 01:37:00,38.3,2.8,30.17,NNE,32,3.0,7.0,22,0.00,,,0.00,meteohub,2013-02-26 09:37:00,
2013-02-26 01:42:00,38.5,2.8,30.17,NE,34,2.0,7.0,22,0.00,,,0.00,meteohub,2013-02-26 09:42:00,
2013-02-26 01:47:00,37.9,4.3,30.16,NE,39,3.0,7.0,24,0.00,,,0.00,meteohub,2013-02-26 09:47:00,
2013-02-26 01:52:00,37.9,4.3,30.16,NNE,33,9.0,10.0,24,0.00,,,0.00,meteohub,2013-02-26 09:52:00,
2013-02-26 01:57:00,37.9,6.1,30.16,NNE,20,6.0,10.0,26,0.00,,,0.00,meteohub,2013-02-26 09:57:00,
2013-02-26 02:02:00,37.6,5.7,30.16,NE,34,5.0,10.0,26,0.00,,,0.00,meteohub,2013-02-26 10:02:00,
2013-02-26 02:07:00,37.2,6.3,30.16,NNE,30,5.0,11.0,27,0.00,,,0.00,meteohub,2013-02-26 10:07:00,
2013-02-26 02:12:00,36.9,6.8,30.15,NNE,30,2.0,11.0,28,0.00,,,0.00,meteohub,2013-02-26 10:12:00,
2013-02-26 02:17:00,36.9,7.5,30.15,North,5,2.0,12.0,29,0.00,,,0.00,meteohub,2013-02-26 10:17:00,
2013-02-26 02:22:00,36.5,8.1,30.15,NNE,25,3.0,12.0,30,0.00,,,0.00,meteohub,2013-02-26 10:22:00,
2013-02-26 02:27:00,36.3,7.9,30.15,NE,41,1.0,12.0,30,0.00,,,0.00,meteohub,2013-02-26 10:27:00,
2013-02-26 02:32:00,36.1,8.4,30.15,NNW,346,3.0,11.0,31,0.00,,,0.00,meteohub,2013-02-26 10:32:00,
2013-02-26 02:37:00,36.0,8.2,30.15,NNE,20,5.0,11.0,31,0.00,,,0.00,meteohub,2013-02-26 10:37:00,
2013-02-26 02:42:00,36.0,8.2,30.14,NE,43,4.0,10.0,31,0.00,,,0.00,meteohub,2013-02-26 10:42:00,
2013-02-26 02:47:00,36.0,8.2,30.14,NE,46,5.0,9.0,31,0.00,,,0.00,meteohub,2013-02-26 10:47:00,
2013-02-26 02:52:00,36.0,9.0,30.14,NNE,23,4.0,9.0,32,0.00,,,0.00,meteohub,2013-02-26 10:52:00,
2013-02-26 02:57:00,35.8,9.5,30.14,North,354,4.0,9.0,33,0.00,,,0.00,meteohub,2013-02-26 10:57:00,
2013-02-26 03:02:00,35.4,9.1,30.13,NE,43,6.0,9.0,33,0.00,,,0.00,meteohub,2013-02-26 11:02:00,
2013-02-26 03:07:00,35.1,8.2,30.13,North,353,4.0,8.0,32,0.00,,,0.00,meteohub,2013-02-26 11:07:00,
2013-02-26 03:12:00,34.9,8.6,30.13,NNE,25,3.0,8.0,33,0.00,,,0.00,meteohub,2013-02-26 11:12:00,
2013-02-26 03:17:00,34.5,8.4,30.13,NNE,28,6.0,9.0,33,0.00,,,0.00,meteohub,2013-02-26 11:17:00,
2013-02-26 03:22:00,34.3,9.0,30.12,NE,41,2.0,9.0,34,0.00,,,0.00,meteohub,2013-02-26 11:22:00,
2013-02-26 03:27:00,33.6,9.0,30.13,NNE,13,4.0,9.0,35,0.00,,,0.00,meteohub,2013-02-26 11:27:00,
2013-02-26 03:32:00,33.4,10.0,30.13,NNE,24,7.0,8.0,37,0.00,,,0.00,meteohub,2013-02-26 11:32:00,
2013-02-26 03:37:00,33.3,10.4,30.13,NNE,32,4.0,8.0,38,0.00,,,0.00,meteohub,2013-02-26 11:37:00,
2013-02-26 03:42:00,33.1,11.3,30.13,NE,34,4.0,8.0,40,0.00,,,0.00,meteohub,2013-02-26 11:42:00,
2013-02-26 03:47:00,33.1,12.0,30.13,NE,48,5.0,10.0,41,0.00,,,0.00,meteohub,2013-02-26 11:47:00,
2013-02-26 03:52:00,32.7,11.1,30.13,NNE,15,5.0,10.0,40,0.00,,,0.00,meteohub,2013-02-26 11:52:00,
2013-02-26 03:57:00,32.4,11.8,30.13,NE,49,4.0,11.0,42,0.00,,,0.00,meteohub,2013-02-26 11:57:00,
2013-02-26 04:02:00,32.4,12.9,30.13,NNE,20,2.0,11.0,44,0.00,,,0.00,meteohub,2013-02-26 12:02:00,
2013-02-26 04:07:00,32.4,13.5,30.13,North,10,6.0,9.0,45,0.00,,,0.00,meteohub,2013-02-26 12:07:00,
2013-02-26 04:12:00,32.4,13.5,30.13,NE,55,3.0,7.0,45,0.00,,,0.00,meteohub,2013-02-26 12:12:00,
2013-02-26 04:17:00,32.2,13.6,30.13,NNE,32,8.0,8.0,46,0.00,,,0.00,meteohub,2013-02-26 12:17:00,
2013-02-26 04:22:00,32.2,13.6,30.13,NNE,22,5.0,8.0,46,0.00,,,0.00,meteohub,2013-02-26 12:22:00,
2013-02-26 04:27:00,32.2,13.6,30.14,NE,34,4.0,8.0,46,0.00,,,0.00,meteohub,2013-02-26 12:27:00,
2013-02-26 04:32:00,31.6,13.3,30.14,NNE,18,7.0,8.0,46,0.00,,,0.00,meteohub,2013-02-26 12:32:00,
2013-02-26 04:37:00,31.6,13.3,30.13,NNE,23,4.0,8.0,46,0.00,,,0.00,meteohub,2013-02-26 12:37:00,
2013-02-26 04:42:00,31.6,14.2,30.14,North,4,4.0,8.0,48,0.00,,,0.00,meteohub,2013-02-26 12:42:00,
2013-02-26 04:47:00,31.6,14.7,30.14,NNE,26,5.0,8.0,49,0.00,,,0.00,meteohub,2013-02-26 12:47:00,
2013-02-26 04:52:00,31.8,14.9,30.13,NNE,29,7.0,8.0,49,0.00,,,0.00,meteohub,2013-02-26 12:52:00,
2013-02-26 04:57:00,32.0,15.4,30.13,NE,36,4.0,9.0,50,0.00,,,0.00,meteohub,2013-02-26 12:57:00,
2013-02-26 05:02:00,31.8,15.3,30.13,NNE,22,1.0,11.0,50,0.00,,,0.00,meteohub,2013-02-26 13:02:00,
2013-02-26 05:07:00,31.5,15.4,30.13,NNE,27,6.0,11.0,51,0.00,,,0.00,meteohub,2013-02-26 13:07:00,
2013-02-26 05:12:00,31.3,15.6,30.13,NNE,25,5.0,10.0,52,0.00,,,0.00,meteohub,2013-02-26 13:12:00,
2013-02-26 05:17:00,31.3,15.3,30.13,NE,37,4.0,11.0,51,0.00,,,0.00,meteohub,2013-02-26 13:17:00,
2013-02-26 05:22:00,30.9,15.4,30.13,NE,48,5.0,11.0,52,0.00,,,0.00,meteohub,2013-02-26 13:22:00,
2013-02-26 05:27:00,30.9,15.4,30.13,NE,39,7.0,11.0,52,0.00,,,0.00,meteohub,2013-02-26 13:27:00,
2013-02-26 05:32:00,30.9,15.4,30.13,NNE,18,3.0,9.0,52,0.00,,,0.00,meteohub,2013-02-26 13:32:00,
2013-02-26 05:37:00,30.7,15.6,30.14,NNE,23,7.0,9.0,53,0.00,,,0.00,meteohub,2013-02-26 13:37:00,
2013-02-26 05:42:00,30.7,15.6,30.13,NNE,26,5.0,9.0,53,0.00,,,0.00,meteohub,2013-02-26 13:42:00,
2013-02-26 05:47:00,30.7,16.0,30.13,North,349,4.0,9.0,54,0.00,,,0.00,meteohub,2013-02-26 13:47:00,
2013-02-26 05:52:00,30.7,15.6,30.12,NNE,27,4.0,8.0,53,0.00,,,0.00,meteohub,2013-02-26 13:52:00,
2013-02-26 05:57:00,30.7,15.6,30.12,NNE,28,4.0,9.0,53,0.00,,,0.00,meteohub,2013-02-26 13:57:00,
2013-02-26 06:02:00,30.7,15.6,30.12,NNE,23,5.0,9.0,53,0.00,,,0.00,meteohub,2013-02-26 14:02:00,
2013-02-26 06:07:00,30.7,15.6,30.12,NNE,32,7.0,8.0,53,0.00,,,0.00,meteohub,2013-02-26 14:07:00,
2013-02-26 06:12:00,30.7,15.6,30.13,NNE,30,3.0,9.0,53,0.00,,,0.00,meteohub,2013-02-26 14:12:00,
2013-02-26 06:17:00,30.6,16.0,30.13,NE,44,3.0,9.0,54,0.00,,,0.00,meteohub,2013-02-26 14:17:00,
2013-02-26 06:22:00,30.6,16.3,30.13,NNE,18,5.0,9.0,55,0.00,,,0.00,meteohub,2013-02-26 14:22:00,
2013-02-26 06:27:00,30.4,16.2,30.13,NE,47,2.0,8.0,55,0.00,,,0.00,meteohub,2013-02-26 14:27:00,
2013-02-26 06:32:00,30.4,17.1,30.13,NNE,32,3.0,8.0,57,0.00,,,0.00,meteohub,2013-02-26 14:32:00,
2013-02-26 06:37:00,30.2,17.2,30.13,NNE,30,5.0,7.0,58,0.00,,,0.00,meteohub,2013-02-26 14:37:00,
2013-02-26 06:47:00,30.9,18.7,30.13,NE,47,2.0,8.0,60,0.00,,,0.00,meteohub,2013-02-26 14:47:00,
2013-02-26 06:52:00,31.3,18.7,30.13,NE,34,2.0,8.0,59,0.00,,,0.00,meteohub,2013-02-26 14:52:00,
2013-02-26 06:57:00,31.6,19.0,30.13,NE,40,4.0,8.0,59,0.00,,,0.00,meteohub,2013-02-26 14:57:00,
2013-02-26 07:02:00,32.2,19.4,30.13,NNE,30,4.0,5.0,59,0.00,,,0.00,meteohub,2013-02-26 15:02:00,
2013-02-26 07:07:00,32.7,19.6,30.13,NNE,27,3.0,6.0,58,0.00,,,0.00,meteohub,2013-02-26 15:07:00,
2013-02-26 07:12:00,33.3,19.8,30.13,NNE,33,6.0,8.0,57,0.00,,,0.00,meteohub,2013-02-26 15:12:00,
2013-02-26 07:17:00,33.6,19.9,30.14,NNW,345,5.0,8.0,57,0.00,,,0.00,meteohub,2013-02-26 15:17:00,
2013-02-26 07:22:00,34.2,19.8,30.14,NNE,30,4.0,8.0,55,0.00,,,0.00,meteohub,2013-02-26 15:22:00,
2013-02-26 07:27:00,34.7,20.1,30.14,NE,48,4.0,8.0,55,0.00,,,0.00,meteohub,2013-02-26 15:27:00,
2013-02-26 07:32:00,35.1,19.6,30.14,NNE,32,5.0,8.0,53,0.00,,,0.00,meteohub,2013-02-26 15:32:00,
2013-02-26 07:37:00,35.6,20.1,30.14,NNE,24,3.0,7.0,53,0.00,,,0.00,meteohub,2013-02-26 15:37:00,
2013-02-26 07:42:00,36.1,20.7,30.15,NE,49,2.0,6.0,53,0.00,,,0.00,meteohub,2013-02-26 15:42:00,
2013-02-26 07:47:00,36.5,20.1,30.15,North,357,3.0,6.0,51,0.00,,,0.00,meteohub,2013-02-26 15:47:00,
2013-02-26 07:57:00,37.0,20.7,30.16,NNE,28,3.0,6.0,51,0.00,,,0.00,meteohub,2013-02-26 15:57:00,
2013-02-26 08:02:00,37.4,20.5,30.16,NNW,334,2.0,6.0,50,0.00,,,0.00,meteohub,2013-02-26 16:02:00,
2013-02-26 08:12:00,37.9,19.9,30.16,NNE,27,4.0,6.0,48,0.00,,,0.00,meteohub,2013-02-26 16:12:00,
2013-02-26 08:17:00,37.9,20.5,30.17,NE,40,1.0,6.0,49,0.00,,,0.00,meteohub,2013-02-26 16:17:00,
2013-02-26 08:27:00,37.9,19.9,30.17,NE,35,5.0,9.0,48,0.00,,,0.00,meteohub,2013-02-26 16:27:00,
2013-02-26 08:32:00,37.9,20.5,30.18,NNE,12,6.0,9.0,49,0.00,,,0.00,meteohub,2013-02-26 16:32:00,
2013-02-26 08:37:00,37.8,20.3,30.18,WSW,255,4.0,9.0,49,0.00,,,0.00,meteohub,2013-02-26 16:37:00,
2013-02-26 08:42:00,38.5,21.0,30.18,NE,40,3.0,9.0,49,0.00,,,0.00,meteohub,2013-02-26 16:42:00,
2013-02-26 08:52:00,39.6,19.9,30.19,NNE,27,3.0,8.0,45,0.00,,,0.00,meteohub,2013-02-26 16:52:00,
2013-02-26 08:57:00,40.3,20.7,30.19,NE,41,4.0,8.0,45,0.00,,,0.00,meteohub,2013-02-26 16:57:00,
2013-02-26 09:02:00,40.5,20.3,30.19,NW,306,2.0,8.0,44,0.00,,,0.00,meteohub,2013-02-26 17:02:00,
2013-02-26 09:07:00,40.6,19.9,30.19,NE,46,0.0,8.0,43,0.00,,,0.00,meteohub,2013-02-26 17:07:00,
2013-02-26 09:17:00,41.4,19.4,30.19,NNW,347,4.0,8.0,41,0.00,,,0.00,meteohub,2013-02-26 17:17:00,
2013-02-26 09:22:00,41.9,19.4,30.19,East,86,0.0,8.0,40,0.00,,,0.00,meteohub,2013-02-26 17:22:00,
2013-02-26 09:27:00,42.6,18.1,30.19,NNE,15,3.0,8.0,37,0.00,,,0.00,meteohub,2013-02-26 17:27:00,
2013-02-26 09:32:00,42.4,18.0,30.19,NW,322,6.0,9.0,37,0.00,,,0.00,meteohub,2013-02-26 17:32:00,
2013-02-26 09:37:00,42.6,17.6,30.19,West,280,2.0,9.0,36,0.00,,,0.00,meteohub,2013-02-26 17:37:00,
2013-02-26 09:42:00,43.0,17.8,30.19,WNW,291,9.0,9.0,36,0.00,,,0.00,meteohub,2013-02-26 17:42:00,
2013-02-26 09:47:00,43.2,18.0,30.19,West,262,3.0,9.0,36,0.00,,,0.00,meteohub,2013-02-26 17:47:00,
2013-02-26 09:52:00,43.5,17.6,30.19,West,264,3.0,9.0,35,0.00,,,0.00,meteohub,2013-02-26 17:52:00,
2013-02-26 09:57:00,43.5,17.6,30.19,NE,41,3.0,9.0,35,0.00,,,0.00,meteohub,2013-02-26 17:57:00,
2013-02-26 10:02:00,43.9,18.0,30.19,West,266,4.0,11.0,35,0.00,,,0.00,meteohub,2013-02-26 18:02:00,
2013-02-26 10:07:00,43.5,17.6,30.19,NE,34,6.0,11.0,35,0.00,,,0.00,meteohub,2013-02-26 18:07:00,
2013-02-26 10:12:00,43.9,18.7,30.19,NE,41,5.0,8.0,36,0.00,,,0.00,meteohub,2013-02-26 18:12:00,
2013-02-26 10:17:00,44.1,18.9,30.19,NNE,27,5.0,8.0,36,0.00,,,0.00,meteohub,2013-02-26 18:17:00,
2013-02-26 10:27:00,44.8,18.9,30.20,SW,232,2.0,10.0,35,0.00,,,0.00,meteohub,2013-02-26 18:27:00,
2013-02-26 10:32:00,44.8,18.9,30.19,NNE,29,10.0,11.0,35,0.00,,,0.00,meteohub,2013-02-26 18:32:00,
2013-02-26 10:37:00,44.8,19.4,30.19,NNE,30,5.0,12.0,36,0.00,,,0.00,meteohub,2013-02-26 18:37:00,
2013-02-26 10:42:00,45.1,19.8,30.19,East,86,2.0,12.0,36,0.00,,,0.00,meteohub,2013-02-26 18:42:00,
2013-02-26 10:47:00,45.7,19.6,30.19,WNW,287,1.0,12.0,35,0.00,,,0.00,meteohub,2013-02-26 18:47:00,
2013-02-26 10:52:00,46.2,19.4,30.19,NW,315,3.0,10.0,34,0.00,,,0.00,meteohub,2013-02-26 18:52:00,
2013-02-26 10:57:00,45.9,18.3,30.19,NW,324,0.0,9.0,33,0.00,,,0.00,meteohub,2013-02-26 18:57:00,
2013-02-26 11:02:00,45.9,17.6,30.19,North,354,5.0,10.0,32,0.00,,,0.00,meteohub,2013-02-26 19:02:00,
2013-02-26 11:07:00,45.9,16.9,30.19,NNE,22,6.0,10.0,31,0.00,,,0.00,meteohub,2013-02-26 19:07:00,
2013-02-26 11:12:00,45.9,17.6,30.19,NE,39,4.0,12.0,32,0.00,,,0.00,meteohub,2013-02-26 19:12:00,
2013-02-26 11:17:00,46.0,17.1,30.19,NE,41,6.0,12.0,31,0.00,,,0.00,meteohub,2013-02-26 19:17:00,
2013-02-26 11:22:00,46.2,18.0,30.19,NNE,12,6.0,12.0,32,0.00,,,0.00,meteohub,2013-02-26 19:22:00,
2013-02-26 11:27:00,46.4,17.4,30.19,NW,306,7.0,12.0,31,0.00,,,0.00,meteohub,2013-02-26 19:27:00,
2013-02-26 11:32:00,46.8,17.8,30.19,North,359,9.0,12.0,31,0.00,,,0.00,meteohub,2013-02-26 19:32:00,
2013-02-26 11:37:00,47.1,18.0,30.18,WNW,296,3.0,10.0,31,0.00,,,0.00,meteohub,2013-02-26 19:37:00,
2013-02-26 11:42:00,47.1,16.5,30.19,NE,49,3.0,10.0,29,0.00,,,0.00,meteohub,2013-02-26 19:42:00,
2013-02-26 11:47:00,46.8,15.4,30.18,ESE,105,1.0,10.0,28,0.00,,,0.00,meteohub,2013-02-26 19:47:00,
2013-02-26 11:52:00,46.9,15.4,30.18,NNW,330,1.0,9.0,28,0.00,,,0.00,meteohub,2013-02-26 19:52:00,
2013-02-26 11:57:00,46.8,15.4,30.18,NNE,30,2.0,10.0,28,0.00,,,0.00,meteohub,2013-02-26 19:57:00,
2013-02-26 12:02:00,47.1,15.6,30.18,North,352,7.0,11.0,28,0.00,,,0.00,meteohub,2013-02-26 20:02:00,
2013-02-26 12:07:00,47.3,15.1,30.18,NW,309,4.0,11.0,27,0.00,,,0.00,meteohub,2013-02-26 20:07:00,
2013-02-26 12:12:00,47.1,14.0,30.18,NNW,332,3.0,12.0,26,0.00,,,0.00,meteohub,2013-02-26 20:12:00,
2013-02-26 12:17:00,47.5,15.1,30.18,WNW,299,8.0,15.0,27,0.00,,,0.00,meteohub,2013-02-26 20:17:00,
2013-02-26 12:22:00,47.3,15.8,30.17,NE,45,7.0,15.0,28,0.00,,,0.00,meteohub,2013-02-26 20:22:00,
2013-02-26 12:27:00,47.5,14.4,30.17,North,1,6.0,12.0,26,0.00,,,0.00,meteohub,2013-02-26 20:27:00,
2013-02-26 12:32:00,47.5,15.1,30.17,NNE,23,2.0,12.0,27,0.00,,,0.00,meteohub,2013-02-26 20:32:00,
2013-02-26 12:37:00,47.5,13.5,30.17,SE,132,1.0,12.0,25,0.00,,,0.00,meteohub,2013-02-26 20:37:00,
2013-02-26 12:42:00,47.7,15.3,30.16,NW,323,2.0,12.0,27,0.00,,,0.00,meteohub,2013-02-26 20:42:00,
2013-02-26 12:47:00,47.8,15.4,30.16,WSW,243,3.0,12.0,27,0.00,,,0.00,meteohub,2013-02-26 20:47:00,
2013-02-26 12:52:00,48.2,14.0,30.16,WSW,252,6.0,12.0,25,0.00,,,0.00,meteohub,2013-02-26 20:52:00,
2013-02-26 12:57:00,48.0,13.8,30.16,NW,323,2.0,11.0,25,0.00,,,0.00,meteohub,2013-02-26 20:57:00,
2013-02-26 13:02:00,47.8,11.8,30.16,NW,323,11.0,11.0,23,0.00,,,0.00,meteohub,2013-02-26 21:02:00,
2013-02-26 13:07:00,47.7,14.4,30.16,West,267,1.0,12.0,26,0.00,,,0.00,meteohub,2013-02-26 21:07:00,
2013-02-26 13:12:00,47.8,13.6,30.16,WSW,258,1.0,12.0,25,0.00,,,0.00,meteohub,2013-02-26 21:12:00,
2013-02-26 13:17:00,48.4,14.2,30.16,ENE,58,5.0,12.0,25,0.00,,,0.00,meteohub,2013-02-26 21:17:00,
2013-02-26 13:22:00,48.7,14.5,30.16,NE,41,3.0,11.0,25,0.00,,,0.00,meteohub,2013-02-26 21:22:00,
2013-02-26 13:27:00,48.4,14.2,30.16,NNE,22,1.0,11.0,25,0.00,,,0.00,meteohub,2013-02-26 21:27:00,
2013-02-26 13:32:00,48.0,12.9,30.17,East,94,7.0,10.0,24,0.00,,,0.00,meteohub,2013-02-26 21:32:00,
2013-02-26 13:37:00,47.7,12.6,30.17,NNE,13,4.0,11.0,24,0.00,,,0.00,meteohub,2013-02-26 21:37:00,
2013-02-26 13:42:00,47.7,13.5,30.17,NW,312,4.0,12.0,25,0.00,,,0.00,meteohub,2013-02-26 21:42:00,
2013-02-26 13:47:00,47.8,13.6,30.17,North,6,2.0,12.0,25,0.00,,,0.00,meteohub,2013-02-26 21:47:00,
2013-02-26 13:52:00,47.7,12.6,30.17,NNW,339,1.0,9.0,24,0.00,,,0.00,meteohub,2013-02-26 21:52:00,
2013-02-26 13:57:00,47.7,13.5,30.17,NE,36,4.0,7.0,25,0.00,,,0.00,meteohub,2013-02-26 21:57:00,
2013-02-26 14:02:00,47.7,14.4,30.17,SSW,200,1.0,10.0,26,0.00,,,0.00,meteohub,2013-02-26 22:02:00,
2013-02-26 14:07:00,47.5,12.6,30.17,North,349,4.0,11.0,24,0.00,,,0.00,meteohub,2013-02-26 22:07:00,
2013-02-26 14:12:00,47.3,13.3,30.17,North,350,6.0,11.0,25,0.00,,,0.00,meteohub,2013-02-26 22:12:00,
2013-02-26 14:17:00,47.5,11.5,30.17,West,268,2.0,11.0,23,0.00,,,0.00,meteohub,2013-02-26 22:17:00,
2013-02-26 14:22:00,47.7,13.5,30.17,NE,48,9.0,9.0,25,0.00,,,0.00,meteohub,2013-02-26 22:22:00,
2013-02-26 14:27:00,47.5,12.6,30.17,ESE,122,2.0,9.0,24,0.00,,,0.00,meteohub,2013-02-26 22:27:00,
2013-02-26 14:32:00,47.5,13.5,30.17,South,176,2.0,10.0,25,0.00,,,0.00,meteohub,2013-02-26 22:32:00,
2013-02-26 14:37:00,47.7,12.6,30.17,NNE,22,7.0,10.0,24,0.00,,,0.00,meteohub,2013-02-26 22:37:00,
2013-02-26 14:42:00,47.7,14.4,30.17,West,281,1.0,10.0,26,0.00,,,0.00,meteohub,2013-02-26 22:42:00,
2013-02-26 14:47:00,47.3,13.3,30.17,ENE,71,3.0,8.0,25,0.00,,,0.00,meteohub,2013-02-26 22:47:00,
2013-02-26 14:52:00,47.3,12.4,30.18,WSW,252,1.0,8.0,24,0.00,,,0.00,meteohub,2013-02-26 22:52:00,
2013-02-26 14:57:00,47.5,11.5,30.18,NW,309,3.0,8.0,23,0.00,,,0.00,meteohub,2013-02-26 22:57:00,
2013-02-26 15:02:00,47.1,13.1,30.18,NNW,348,0.0,11.0,25,0.00,,,0.00,meteohub,2013-02-26 23:02:00,
2013-02-26 15:07:00,46.9,12.9,30.18,NNE,17,2.0,11.0,25,0.00,,,0.00,meteohub,2013-02-26 23:07:00,
2013-02-26 15:12:00,46.9,12.0,30.18,WNW,289,3.0,11.0,24,0.00,,,0.00,meteohub,2013-02-26 23:12:00,
2013-02-26 15:17:00,46.6,10.8,30.18,West,264,2.0,8.0,23,0.00,,,0.00,meteohub,2013-02-26 23:17:00,
2013-02-26 15:22:00,46.0,12.2,30.18,West,276,1.0,12.0,25,0.00,,,0.00,meteohub,2013-02-26 23:22:00,
2013-02-26 15:27:00,45.7,11.8,30.19,NE,53,1.0,12.0,25,0.00,,,0.00,meteohub,2013-02-26 23:27:00,
2013-02-26 15:32:00,45.5,10.8,30.19,ENE,57,4.0,12.0,24,0.00,,,0.00,meteohub,2013-02-26 23:32:00,
2013-02-26 15:37:00,45.3,11.5,30.19,NE,41,1.0,16.0,25,0.00,,,0.00,meteohub,2013-02-26 23:37:00,
2013-02-26 15:42:00,45.1,11.5,30.18,NNW,330,1.0,16.0,25,0.00,,,0.00,meteohub,2013-02-26 23:42:00,
2013-02-26 15:47:00,45.0,11.3,30.18,West,277,2.0,10.0,25,0.00,,,0.00,meteohub,2013-02-26 23:47:00,
2013-02-26 15:52:00,44.8,11.1,30.19,North,8,0.0,10.0,25,0.00,,,0.00,meteohub,2013-02-26 23:52:00,
2013-02-26 15:57:00,44.4,10.8,30.19,East,96,2.0,10.0,25,0.00,,,0.00,meteohub,2013-02-26 23:57:00,
2013-02-26 16:02:00,44.4,11.7,30.19,NE,51,2.0,10.0,26,0.00,,,0.00,meteohub,2013-02-27 00:02:00,
2013-02-26 16:07:00,44.2,12.4,30.19,NNE,29,1.0,11.0,27,0.00,,,0.00,meteohub,2013-02-27 00:07:00,
2013-02-26 16:12:00,44.1,12.2,30.19,ESE,114,0.0,11.0,27,0.00,,,0.00,meteohub,2013-02-27 00:12:00,
2013-02-26 16:17:00,43.9,11.1,30.19,WSW,240,1.0,5.0,26,0.00,,,0.00,meteohub,2013-02-27 00:17:00,
2013-02-26 16:22:00,43.9,11.1,30.19,NE,37,2.0,6.0,26,0.00,,,0.00,meteohub,2013-02-27 00:22:00,
2013-02-26 16:27:00,43.9,10.4,30.19,NE,39,4.0,8.0,25,0.00,,,0.00,meteohub,2013-02-27 00:27:00,
2013-02-26 16:32:00,43.9,10.4,30.19,WSW,250,2.0,11.0,25,0.00,,,0.00,meteohub,2013-02-27 00:32:00,
2013-02-26 16:37:00,43.5,10.9,30.19,NE,40,2.0,11.0,26,0.00,,,0.00,meteohub,2013-02-27 00:37:00,
2013-02-26 16:42:00,43.3,9.9,30.20,NW,309,2.0,7.0,25,0.00,,,0.00,meteohub,2013-02-27 00:42:00,
2013-02-26 16:47:00,43.3,10.8,30.20,NE,42,6.0,7.0,26,0.00,,,0.00,meteohub,2013-02-27 00:47:00,
2013-02-26 16:52:00,43.3,9.0,30.20,NNE,12,5.0,8.0,24,0.00,,,0.00,meteohub,2013-02-27 00:52:00,
2013-02-26 16:57:00,43.2,9.7,30.20,NE,39,2.0,10.0,25,0.00,,,0.00,meteohub,2013-02-27 00:57:00,
2013-02-26 17:02:00,43.0,10.4,30.20,NNE,12,5.0,10.0,26,0.00,,,0.00,meteohub,2013-02-27 01:02:00,
2013-02-26 17:07:00,42.6,10.0,30.20,NNW,340,1.0,10.0,26,0.00,,,0.00,meteohub,2013-02-27 01:07:00,
2013-02-26 17:12:00,42.4,9.1,30.21,NNE,32,2.0,6.0,25,0.00,,,0.00,meteohub,2013-02-27 01:12:00,
2013-02-26 17:17:00,42.4,10.0,30.21,SE,129,1.0,6.0,26,0.00,,,0.00,meteohub,2013-02-27 01:17:00,
2013-02-26 17:22:00,42.3,9.9,30.20,West,276,1.0,6.0,26,0.00,,,0.00,meteohub,2013-02-27 01:22:00,
2013-02-26 17:27:00,42.3,9.9,30.20,NNW,343,3.0,6.0,26,0.00,,,0.00,meteohub,2013-02-27 01:27:00,
2013-02-26 17:32:00,42.1,9.7,30.20,NNE,32,0.0,6.0,26,0.00,,,0.00,meteohub,2013-02-27 01:32:00,
2013-02-26 17:37:00,41.7,10.2,30.20,NNE,17,4.0,6.0,27,0.00,,,0.00,meteohub,2013-02-27 01:37:00,
2013-02-26 17:42:00,41.9,9.5,30.21,NE,51,1.0,8.0,26,0.00,,,0.00,meteohub,2013-02-27 01:42:00,
2013-02-26 17:47:00,41.5,10.0,30.20,North,358,2.0,8.0,27,0.00,,,0.00,meteohub,2013-02-27 01:47:00,
2013-02-26 17:52:00,41.2,9.7,30.21,NNE,25,1.0,8.0,27,0.00,,,0.00,meteohub,2013-02-27 01:52:00,
2013-02-26 17:57:00,40.8,9.3,30.21,North,6,2.0,4.0,27,0.00,,,0.00,meteohub,2013-02-27 01:57:00,
2013-02-26 18:02:00,40.6,9.3,30.21,North,10,2.0,4.0,27,0.00,,,0.00,meteohub,2013-02-27 02:02:00,
2013-02-26 18:07:00,40.6,9.3,30.21,NNW,327,2.0,4.0,27,0.00,,,0.00,meteohub,2013-02-27 02:07:00,
2013-02-26 18:12:00,40.6,8.4,30.21,NNW,333,1.0,6.0,26,0.00,,,0.00,meteohub,2013-02-27 02:12:00,
2013-02-26 18:17:00,40.6,8.4,30.21,NNW,345,2.0,6.0,26,0.00,,,0.00,meteohub,2013-02-27 02:17:00,
2013-02-26 18:22:00,40.5,9.1,30.21,NW,321,3.0,6.0,27,0.00,,,0.00,meteohub,2013-02-27 02:22:00,
2013-02-26 18:32:00,40.5,8.2,30.22,North,5,2.0,5.0,26,0.00,,,0.00,meteohub,2013-02-27 02:32:00,
2013-02-26 18:37:00,40.3,8.1,30.22,NNE,16,3.0,3.0,26,0.00,,,0.00,meteohub,2013-02-27 02:37:00,
2013-02-26 18:42:00,40.1,7.9,30.22,NNE,18,0.0,3.0,26,0.00,,,0.00,meteohub,2013-02-27 02:42:00,
2013-02-26 18:47:00,39.7,9.3,30.22,West,278,0.0,3.0,28,0.00,,,0.00,meteohub,2013-02-27 02:47:00,
2013-02-26 18:52:00,38.7,9.9,30.22,WSW,254,1.0,3.0,30,0.00,,,0.00,meteohub,2013-02-27 02:52:00,
2013-02-26 18:57:00,37.9,9.3,30.23,WSW,254,0.0,2.0,30,0.00,,,0.00,meteohub,2013-02-27 02:57:00,
2013-02-26 19:07:00,38.7,8.4,30.23,WNW,302,3.0,3.0,28,0.00,,,0.00,meteohub,2013-02-27 03:07:00,
2013-02-26 19:12:00,39.0,8.6,30.23,WNW,285,1.0,4.0,28,0.00,,,0.00,meteohub,2013-02-27 03:12:00,
2013-02-26 19:17:00,38.8,8.4,30.24,West,274,2.0,4.0,28,0.00,,,0.00,meteohub,2013-02-27 03:17:00,
2013-02-26 19:22:00,38.7,8.4,30.24,WNW,297,1.0,4.0,28,0.00,,,0.00,meteohub,2013-02-27 03:22:00,
2013-02-26 19:27:00,38.5,9.0,30.24,West,273,1.0,3.0,29,0.00,,,0.00,meteohub,2013-02-27 03:27:00,
2013-02-26 19:32:00,38.1,8.6,30.24,NNE,17,0.0,3.0,29,0.00,,,0.00,meteohub,2013-02-27 03:32:00,
2013-02-26 19:42:00,37.8,8.4,30.25,NNW,345,0.0,3.0,29,0.00,,,0.00,meteohub,2013-02-27 03:42:00,
2013-02-26 19:47:00,37.6,7.3,30.25,NNW,338,1.0,3.0,28,0.00,,,0.00,meteohub,2013-02-27 03:47:00,
2013-02-26 19:57:00,37.6,7.3,30.24,WNW,290,0.0,3.0,28,0.00,,,0.00,meteohub,2013-02-27 03:57:00,
2013-02-26 20:07:00,37.9,7.0,30.24,WNW,303,2.0,4.0,27,0.00,,,0.00,meteohub,2013-02-27 04:07:00,
2013-02-26 20:12:00,38.1,7.2,30.25,NNE,16,2.0,4.0,27,0.00,,,0.00,meteohub,2013-02-27 04:12:00,
2013-02-26 20:17:00,37.9,7.0,30.25,NW,326,0.0,4.0,27,0.00,,,0.00,meteohub,2013-02-27 04:17:00,
2013-02-26 20:22:00,37.9,7.0,30.26,North,1,2.0,4.0,27,0.00,,,0.00,meteohub,2013-02-27 04:22:00,
2013-02-26 20:32:00,37.8,6.8,30.25,NE,39,1.0,3.0,27,0.00,,,0.00,meteohub,2013-02-27 04:32:00,
2013-02-26 20:37:00,37.2,7.2,30.25,NNE,32,1.0,3.0,28,0.00,,,0.00,meteohub,2013-02-27 04:37:00,
2013-02-26 20:47:00,36.0,7.5,30.26,NNW,327,0.0,2.0,30,0.00,,,0.00,meteohub,2013-02-27 04:47:00,
2013-02-26 20:57:00,36.0,6.1,30.27,North,4,1.0,0.0,28,0.00,,,0.00,meteohub,2013-02-27 04:57:00,
2013-02-26 21:02:00,36.1,5.4,30.27,North,4,1.0,2.0,27,0.00,,,0.00,meteohub,2013-02-27 05:02:00,
2013-02-26 21:07:00,36.5,5.7,30.27,NNE,27,0.0,4.0,27,0.00,,,0.00,meteohub,2013-02-27 05:07:00,
2013-02-26 21:12:00,37.0,5.4,30.27,ENE,77,2.0,4.0,26,0.00,,,0.00,meteohub,2013-02-27 05:12:00,
2013-02-26 21:17:00,37.8,5.0,30.27,NNE,23,3.0,7.0,25,0.00,,,0.00,meteohub,2013-02-27 05:17:00,
2013-02-26 21:22:00,37.9,4.3,30.27,NE,39,3.0,7.0,24,0.00,,,0.00,meteohub,2013-02-27 05:22:00,
2013-02-26 21:27:00,38.5,4.8,30.27,NNW,346,4.0,7.0,24,0.00,,,0.00,meteohub,2013-02-27 05:27:00,
2013-02-26 21:32:00,38.5,4.8,30.27,North,353,6.0,8.0,24,0.00,,,0.00,meteohub,2013-02-27 05:32:00,
2013-02-26 21:37:00,38.7,4.1,30.27,NE,37,6.0,8.0,23,0.00,,,0.00,meteohub,2013-02-27 05:37:00,
2013-02-26 21:42:00,38.7,4.1,30.27,NNE,24,4.0,9.0,23,0.00,,,0.00,meteohub,2013-02-27 05:42:00,
2013-02-26 21:47:00,38.3,4.6,30.27,North,356,3.0,9.0,24,0.00,,,0.00,meteohub,2013-02-27 05:47:00,
2013-02-26 21:52:00,38.1,4.5,30.27,NE,39,7.0,9.0,24,0.00,,,0.00,meteohub,2013-02-27 05:52:00,
2013-02-26 21:57:00,37.9,5.2,30.27,NNE,27,4.0,8.0,25,0.00,,,0.00,meteohub,2013-02-27 05:57:00,
2013-02-26 22:02:00,37.6,4.1,30.27,NNW,336,5.0,11.0,24,0.00,,,0.00,meteohub,2013-02-27 06:02:00,
2013-02-26 22:07:00,37.9,4.3,30.27,North,8,4.0,11.0,24,0.00,,,0.00,meteohub,2013-02-27 06:07:00,
2013-02-26 22:12:00,37.8,5.0,30.27,NNE,28,6.0,9.0,25,0.00,,,0.00,meteohub,2013-02-27 06:12:00,
2013-02-26 22:17:00,37.6,5.0,30.28,NE,36,3.0,9.0,25,0.00,,,0.00,meteohub,2013-02-27 06:17:00,
2013-02-26 22:22:00,37.2,4.6,30.28,NNE,30,4.0,9.0,25,0.00,,,0.00,meteohub,2013-02-27 06:22:00,
2013-02-26 22:27:00,37.0,3.6,30.28,NNE,15,5.0,7.0,24,0.00,,,0.00,meteohub,2013-02-27 06:27:00,
2013-02-26 22:32:00,37.2,2.8,30.29,NNE,18,1.0,7.0,23,0.00,,,0.00,meteohub,2013-02-27 06:32:00,
2013-02-26 22:37:00,37.2,2.8,30.29,NNW,340,1.0,7.0,23,0.00,,,0.00,meteohub,2013-02-27 06:37:00,
2013-02-26 22:42:00,37.4,1.9,30.29,NNE,33,2.0,5.0,22,0.00,,,0.00,meteohub,2013-02-27 06:42:00,
2013-02-26 22:47:00,37.9,1.4,30.29,NNE,29,4.0,7.0,21,0.00,,,0.00,meteohub,2013-02-27 06:47:00,
2013-02-26 22:52:00,38.5,2.8,30.30,East,85,6.0,7.0,22,0.00,,,0.00,meteohub,2013-02-27 06:52:00,
2013-02-26 22:57:00,38.8,0.1,30.29,North,357,6.0,8.0,19,0.00,,,0.00,meteohub,2013-02-27 06:57:00,
2013-02-26 23:02:00,39.4,-0.6,30.29,NNE,20,2.0,10.0,18,0.00,,,0.00,meteohub,2013-02-27 07:02:00,
2013-02-26 23:07:00,39.6,0.7,30.29,NNE,32,5.0,10.0,19,0.00,,,0.00,meteohub,2013-02-27 07:07:00,
2013-02-26 23:12:00,39.4,0.5,30.30,NNE,20,6.0,8.0,19,0.00,,,0.00,meteohub,2013-02-27 07:12:00,
2013-02-26 23:17:00,39.4,0.5,30.30,NNE,18,2.0,9.0,19,0.00,,,0.00,meteohub,2013-02-27 07:17:00,
2013-02-26 23:22:00,39.0,1.4,30.30,NE,39,5.0,9.0,20,0.00,,,0.00,meteohub,2013-02-27 07:22:00,
2013-02-26 23:27:00,38.8,1.2,30.30,NE,39,6.0,9.0,20,0.00,,,0.00,meteohub,2013-02-27 07:27:00,
2013-02-26 23:32:00,38.8,0.1,30.30,NNE,27,4.0,9.0,19,0.00,,,0.00,meteohub,2013-02-27 07:32:00,
2013-02-26 23:37:00,38.7,0.0,30.30,NNE,20,4.0,9.0,19,0.00,,,0.00,meteohub,2013-02-27 07:37:00,
2013-02-26 23:42:00,38.8,0.1,30.30,NNE,15,5.0,9.0,19,0.00,,,0.00,meteohub,2013-02-27 07:42:00,
2013-02-26 23:47:00,38.8,0.1,30.30,NNE,25,4.0,11.0,19,0.00,,,0.00,meteohub,2013-02-27 07:47:00,
2013-02-26 23:52:00,38.7,1.0,30.30,NNE,25,3.0,11.0,20,0.00,,,0.00,meteohub,2013-02-27 07:52:00,
2013-02-26 23:57:00,38.5,0.9,30.30,NE,39,3.0,11.0,20,0.00,,,0.00,meteohub,2013-02-27 07:57:00,